Latest Coastal Weather Observations for Norah Head

IDN60701

Issued at 12:42 pm EDT Tuesday 22 October 2019 (issued every 10 minutes, with the page automatically refreshed every 10 minutes)

About coastal observations | Map of coastal stations | Coastal observations for NSW | Marine services | Other Formats
Station Details ID: 061366 Name: NORAH HEAD AWS Lat: -33.28 Lon: 151.58 Height: 18.8 m
Data from the previous 72 hours. | See also: Recent months at Norah Head
Date/Time
EDT
Wind Sea
Height
m
Swell Vis
km
Cloud Weather Temp
°C
Press
hPa
Rain since
9am
mm
Dir  Spd
kts
Gust
kts
Height
m
Period
s
Dir
22/12:30pm ENE 8 10 - - - - - - - 24.1 1024.5 0.0
22/12:00pm NE 8 10 - - - - - - - 23.7 1025.0 0.0
22/11:30am NE 7 9 - - - - - - - 24.4 1025.4 0.0
22/11:00am NE 5 7 - - - - - - - 23.2 1025.7 0.0
22/10:30am ENE 3 5 - - - - - - - 21.6 1026.0 0.0
22/10:00am NE 2 3 - - - - - - - 20.7 1026.1 0.0
22/09:30am ENE 1 3 - - - - - - - 19.6 1026.1 0.0
22/09:00am ENE 1 2 - - - - - - - 19.3 1026.1 0.0
22/08:30am ENE 1 4 - - - - - - - 18.5 1026.0 0.0
22/08:00am WNW 1 2 - - - - - - - 18.0 1025.8 0.0
22/07:30am NW 1 2 - - - - - - - 16.9 1025.6 0.0
22/07:00am WSW 2 2 - - - - - - - 15.7 1025.4 0.0
22/06:30am WSW 3 4 - - - - - - - 14.9 1025.2 0.0
22/06:00am WSW 5 7 - - - - - - - 14.5 1025.0 0.0
22/05:30am W 6 7 - - - - - - - 14.4 1024.8 0.0
22/05:00am W 4 6 - - - - - - - 14.6 1024.5 0.0
22/04:30am W 3 5 - - - - - - - 14.9 1024.3 0.0
22/04:00am WNW 1 2 - - - - - - - 14.9 1024.3 0.0
22/03:30am W 4 6 - - - - - - - 14.8 1024.6 0.0
22/03:00am W 4 5 - - - - - - - 15.1 1024.7 0.0
22/02:30am W 4 5 - - - - - - - 15.3 1024.8 0.0
22/02:00am WNW 2 3 - - - - - - - 15.7 1024.9 0.0
22/01:30am WNW 2 3 - - - - - - - 15.9 1025.4 0.0
22/01:00am WNW 3 4 - - - - - - - 16.1 1025.6 0.0
22/12:30am WNW 3 4 - - - - - - - 16.6 1025.8 0.0
22/12:00am NNW 4 7 - - - - - - - 17.1 1025.9 0.0
 
Date/Time
EDT
Wind Sea
Height
m
Swell Vis
km
Cloud Weather Temp
°C
Press
hPa
Rain since
9am
mm
Dir  Spd
kts
Gust
kts
Height
m
Period
s
Dir
21/11:30pm NE 8 10 - - - - - - - 17.0 1025.9 0.0
21/11:00pm NE 7 9 - - - - - - - 16.6 1026.0 0.0
21/10:30pm NE 8 9 - - - - - - - 16.9 1026.0 0.0
21/10:00pm NE 9 11 - - - - - - - 17.0 1026.2 0.0
21/09:30pm NE 9 11 - - - - - - - 17.0 1026.1 0.0
21/09:00pm NE 9 11 - - - - - - - 17.0 1025.9 0.0
21/08:30pm NE 9 10 - - - - - - - 17.1 1025.7 0.0
21/08:00pm ENE 9 11 - - - - - - - 17.2 1025.4 0.0
21/07:30pm NE 9 10 - - - - - - - 17.3 1025.2 0.0
21/07:00pm ENE 10 11 - - - - - - - 17.9 1025.1 0.0
21/06:30pm ENE 10 12 - - - - - - - 18.9 1024.8 0.0
21/06:00pm ENE 9 11 - - - - - - - 19.4 1024.6 0.0
21/05:30pm ENE 9 10 - - - - - - - 19.6 1024.5 0.0
21/05:00pm E 9 11 - - - - - - - 19.8 1024.3 0.0
21/04:30pm E 10 12 - - - - - - - 19.9 1024.4 0.0
21/04:00pm E 10 12 - - - - - - - 20.0 1024.5 0.0
21/03:30pm E 10 12 - - - - - - - 20.2 1024.5 0.0
21/03:00pm E 10 11 - - - - - - - 20.9 1024.8 0.0
21/02:30pm E 9 11 - - - - - - - 20.9 1025.1 0.0
21/02:00pm ENE 9 11 - - - - - - - 21.2 1025.4 0.0
21/01:30pm ENE 8 10 - - - - - - - 21.6 1025.7 0.0
21/01:00pm ENE 7 9 - - - - - - - 21.2 1025.8 0.0
21/12:30pm E 6 8 - - - - - - - 20.8 1026.1 0.0
21/12:00pm E 5 7 - - - - - - - 20.3 1026.4 0.0
21/11:30am ESE 5 6 - - - - - - - 20.4 1026.8 0.0
21/11:00am ESE 3 4 - - - - - - - 20.3 1027.1 0.0
21/10:30am ENE 3 4 - - - - - - - 20.4 1027.2 0.0
21/10:00am NE 2 3 - - - - - - - 20.1 1027.2 0.0
21/09:30am S 2 3 - - - - - - - 19.7 1027.1 0.0
21/09:00am S 2 4 - - - - - - - 19.1 1026.9 0.0
21/08:30am WSW 4 5 - - - - - - - 17.0 1026.7 0.0
21/08:00am W 4 6 - - - - - - - 16.6 1026.4 0.0
21/07:30am W 6 7 - - - - - - - 15.1 1026.3 0.0
21/07:00am W 6 7 - - - - - - - 14.3 1026.0 0.0
21/06:30am W 7 8 - - - - - - - 13.7 1025.6 0.0
21/06:00am W 4 6 - - - - - - - 13.8 1025.3 0.0
21/05:30am W 3 5 - - - - - - - 14.0 1025.1 0.0
21/05:00am W 2 4 - - - - - - - 14.2 1024.9 0.0
21/04:30am W 3 5 - - - - - - - 14.3 1024.8 0.0
21/04:00am W 2 4 - - - - - - - 14.3 1024.8 0.0
21/03:30am CALM 0 0 - - - - - - - 14.4 1024.8 0.0
21/03:00am W 3 4 - - - - - - - 14.4 1024.9 0.0
21/02:30am WSW 4 5 - - - - - - - 14.4 1025.1 0.0
21/02:00am SSW 2 5 - - - - - - - 15.5 1025.3 0.0
21/01:30am ESE 4 5 - - - - - - - 16.2 1025.4 0.0
21/01:00am E 3 3 - - - - - - - 16.0 1025.7 0.0
21/12:30am E 4 5 - - - - - - - 16.6 1025.7 0.0
21/12:00am ESE 4 6 - - - - - - - 16.4 1025.7 0.0
 
Date/Time
EDT
Wind Sea
Height
m
Swell Vis
km
Cloud Weather Temp
°C
Press
hPa
Rain since
9am
mm
Dir  Spd
kts
Gust
kts
Height
m
Period
s
Dir
20/11:30pm E 4 5 - - - - - - - 16.4 1025.5 0.0
20/11:00pm ENE 4 6 - - - - - - - 15.3 1025.3 0.0
20/10:30pm ENE 5 7 - - - - - - - 15.6 1025.2 0.0
20/10:00pm NE 7 9 - - - - - - - 15.8 1024.8 0.0
20/09:30pm NE 8 9 - - - - - - - 16.1 1024.7 0.0
20/09:00pm NE 9 10 - - - - - - - 16.1 1024.3 0.0
20/08:30pm ENE 9 11 - - - - - - - 16.6 1023.9 0.0
20/08:00pm ENE 9 11 - - - - - - - 16.8 1023.5 0.0
20/07:30pm ENE 9 11 - - - - - - - 16.8 1023.1 0.0
20/07:00pm ENE 9 11 - - - - - - - 16.9 1022.6 0.0
20/06:30pm ENE 10 13 - - - - - - - 17.7 1022.1 0.0
20/06:00pm ENE 10 13 - - - - - - - 18.3 1021.7 0.0
20/05:30pm ENE 10 12 - - - - - - - 18.4 1021.3 0.0
20/05:00pm E 9 11 - - - - - - - 18.5 1021.2 0.0
20/04:30pm E 9 11 - - - - - - - 18.7 1021.1 0.0
20/04:00pm ESE 9 11 - - - - - - - 18.7 1021.2 0.0
20/03:30pm ESE 9 12 - - - - - - - 19.3 1021.0 0.0
20/03:00pm ESE 9 11 - - - - - - - 19.4 1020.7 0.0
20/02:30pm SE 10 11 - - - - - - - 20.5 1021.2 0.0
20/02:00pm SSE 11 13 - - - - - - - 21.3 1021.5 0.0
20/01:30pm SSE 12 15 - - - - - - - 21.2 1021.7 0.0
20/01:00pm SSE 12 13 - - - - - - - 21.2 1021.8 0.0
20/12:30pm SSE 12 14 - - - - - - - 21.4 1022.0 0.0
20/12:00pm SSE 10 13 - - - - - - - 21.2 1022.3 0.0
20/11:30am S 8 11 - - - - - - - 20.6 1022.6 0.0
20/11:00am S 8 10 - - - - - - - 19.7 1022.6 0.0
20/10:30am S 7 9 - - - - - - - 18.9 1022.6 0.0
20/10:00am SSW 7 9 - - - - - - - 18.3 1022.6 0.0
20/09:30am SSW 8 11 - - - - - - - 17.6 1022.4 0.0
20/09:00am SSW 8 13 - - - - - - - 17.2 1022.1 0.0
20/08:30am SW 7 12 - - - - - - - 16.4 1021.7 0.0
20/08:00am SW 4 9 - - - - - - - 15.6 1021.5 0.0
20/07:30am WSW 3 7 - - - - - - - 14.8 1021.2 0.0
20/07:00am WSW 4 6 - - - - - - - 14.1 1020.8 0.0
20/06:30am WSW 6 9 - - - - - - - 13.4 1020.5 0.0
20/06:00am WSW 6 7 - - - - - - - 13.4 1020.1 0.0
20/05:30am WSW 5 8 - - - - - - - 13.7 1019.8 0.0
20/05:00am WSW 6 7 - - - - - - - 13.9 1019.4 0.0
20/04:30am SW 6 8 - - - - - - - 14.5 1019.3 0.0
20/04:00am SSW 10 13 - - - - - - - 15.9 1019.1 0.0
20/03:30am SW 11 16 - - - - - - - 16.1 1019.1 0.0
20/03:00am SSW 14 18 - - - - - - - 16.7 1019.0 0.0
20/02:30am SSW 15 20 - - - - - - - 16.8 1019.1 0.0
20/02:00am SSW 16 23 - - - - - - - 16.9 1018.9 0.0
20/01:30am S 15 20 - - - - - - - 17.2 1019.0 0.0
20/01:00am S 16 22 - - - - - - - 17.2 1019.0 0.0
20/12:30am S 18 23 - - - - - - - 17.7 1018.8 0.0
20/12:00am S 22 27 - - - - - - - 17.4 1018.7 0.0
 
Date/Time
EDT
Wind Sea
Height
m
Swell Vis
km
Cloud Weather Temp
°C
Press
hPa
Rain since
9am
mm
Dir  Spd
kts
Gust
kts
Height
m
Period
s
Dir
19/11:30pm S 25 29 - - - - - - - 17.7 1017.9 0.0
19/11:00pm S 27 32 - - - - - - - 17.8 1017.5 0.0
19/10:30pm S 24 30 - - - - - - - 18.3 1017.2 0.0
19/10:00pm SSW 13 27 - - - - - - - 19.9 1016.7 0.0
19/09:59pm SW 12 27 - - - - - - - 20.3 1016.7 0.0
19/09:30pm SW 6 10 - - - - - - - 20.5 1015.8 0.0
19/09:00pm SW 10 15 - - - - - - - 21.3 1015.2 0.0
19/08:30pm SW 9 17 - - - - - - - 22.4 1014.4 0.0
19/08:00pm SW 8 17 - - - - - - - 22.4 1014.4 0.0
19/07:30pm WSW 7 12 - - - - - - - 22.8 1012.9 0.0
19/07:00pm WSW 5 8 - - - - - - - 22.8 1012.5 0.0
19/06:30pm SSW 5 11 - - - - - - - 21.4 1012.0 0.0
19/06:00pm ENE 6 8 - - - - - - - 20.6 1010.9 0.0
19/05:30pm ESE 8 9 - - - - - - - 21.0 1010.7 0.0
19/05:00pm E 11 12 - - - - - - - 21.3 1010.1 0.0
19/04:30pm ESE 9 11 - - - - - - - 22.2 1010.1 0.0
19/04:00pm ESE 8 12 - - - - - - - 24.3 1010.1 0.0
19/03:30pm SSE 4 9 - - - - - - - 26.5 1010.0 0.0
19/03:00pm W 7 13 - - - - - - - 29.0 1010.4 0.0
19/02:30pm W 6 13 - - - - - - - 27.9 1010.9 0.0
19/02:00pm W 8 17 - - - - - - - 28.2 1011.5 0.0
19/01:30pm NW 5 11 - - - - - - - 28.2 1012.0 0.0
19/01:00pm WNW 7 19 - - - - - - - 27.8 1012.3 0.0

Other formats

Comma delimited format used in spreadsheet applications
http://www.bom.gov.au/fwo/IDN60701/IDN60701.95770.axf

JavaScript Object Notation format (JSON) in row-major order
http://www.bom.gov.au/fwo/IDN60701/IDN60701.95770.json

Data quality

Most of these data are generated automatically and are frequently updated. Quality checks on data are not normally performed. It is possible for incorrect values to appear. Refer to information at About Latest Weather Observations and please check the disclaimer before using these data.